Time;durP1;ratioP1;P1;durP2;ratioP2;P2;SDS_P1;SDS_P2;PMS_P1;PMS_P2;Temp;Humidity;BMP_temperature;BMP_pressure;BME280_temperature;BME280_humidity;BME280_pressure;Samples;Min_cycle;Max_cycle;Signal;HPM_P1;HPM_P2
2022/02/22 00:00:17;;;;;;;20.95;4.40;;;;;;;5.04;61.06;99743.47;10388903;28;20045;-69
2022/02/22 00:05:19;;;;;;;18.38;3.58;;;;;;;5.02;61.22;99740.97;10387233;28;20045;-68
2022/02/22 00:10:22;;;;;;;21.25;3.60;;;;;;;5.08;61.08;99756.28;10387070;28;20041;-69
2022/02/22 00:15:24;;;;;;;24.52;3.97;;;;;;;5.19;61.31;99764.44;10388927;28;20049;-68
2022/02/22 00:20:25;;;;;;;17.42;3.85;;;;;;;5.39;60.87;99761.88;10387713;28;20128;-69
2022/02/22 00:25:27;;;;;;;22.38;4.10;;;;;;;5.39;60.55;99776.59;10374391;28;20096;-69
2022/02/22 00:30:29;;;;;;;22.30;3.85;;;;;;;5.41;60.56;99782.56;10385639;28;20065;-69
2022/02/22 00:35:31;;;;;;;27.17;4.38;;;;;;;5.33;60.74;99797.59;10388671;28;20132;-69
2022/02/22 00:40:33;;;;;;;27.55;4.30;;;;;;;5.26;60.50;99814.31;10385814;28;20053;-69
2022/02/22 00:45:35;;;;;;;27.65;4.75;;;;;;;5.26;60.85;99832.44;10387444;28;20045;-69
2022/02/22 00:50:38;;;;;;;25.30;4.70;;;;;;;5.19;60.41;99834.44;10375668;28;20041;-69
2022/02/22 00:55:40;;;;;;;24.73;4.53;;;;;;;5.19;60.32;99847.41;10387740;28;20132;-69
2022/02/22 01:00:41;;;;;;;25.52;4.53;;;;;;;5.13;60.32;99845.03;10366776;28;20045;-70
2022/02/22 01:05:43;;;;;;;23.23;4.57;;;;;;;4.94;60.06;99861.38;10386011;28;20501;-69
2022/02/22 01:10:45;;;;;;;21.35;4.47;;;;;;;4.86;59.96;99882.38;10384720;28;20484;-69
2022/02/22 01:15:48;;;;;;;25.92;4.60;;;;;;;4.83;60.01;99884.25;10385114;28;20103;-69
2022/02/22 01:20:50;;;;;;;24.23;4.63;;;;;;;4.99;59.58;99883.59;10386254;28;20407;-68
2022/02/22 01:25:53;;;;;;;21.05;4.30;;;;;;;5.08;59.36;99892.78;10387308;28;20070;-69
2022/02/22 01:30:55;;;;;;;25.40;4.90;;;;;;;5.22;59.21;99893.09;10382271;28;20391;-68
2022/02/22 01:35:57;;;;;;;27.10;4.32;;;;;;;5.25;58.87;99898.16;10385087;28;20045;-67
2022/02/22 01:40:59;;;;;;;22.80;4.55;;;;;;;5.24;58.82;99902.53;10385669;28;20056;-67
2022/02/22 01:46:00;;;;;;;24.70;4.35;;;;;;;5.00;58.86;99911.22;10385271;28;20068;-67
2022/02/22 01:51:02;;;;;;;25.17;4.18;;;;;;;5.21;58.79;99918.19;10384649;28;20072;-68
2022/02/22 01:56:07;;;;;;;28.33;4.90;;;;;;;5.36;58.40;99922.78;10386061;28;20049;-67
2022/02/22 02:01:09;;;;;;;26.92;4.22;;;;;;;5.37;57.98;99906.31;10383743;28;20158;-67
2022/02/22 02:06:12;;;;;;;24.80;4.75;;;;;;;5.27;58.28;99930.91;10383480;28;20053;-67
2022/02/22 02:11:14;;;;;;;25.73;4.53;;;;;;;5.14;58.18;99921.94;10383632;28;20781;-67
2022/02/22 02:16:16;;;;;;;23.15;4.53;;;;;;;5.18;57.93;99927.84;10383036;28;20398;-67
2022/02/22 02:21:18;;;;;;;28.00;4.63;;;;;;;5.17;57.74;99929.56;10382447;28;20069;-67
2022/02/22 02:26:20;;;;;;;26.50;4.63;;;;;;;5.23;58.03;99936.25;10383596;28;20089;-67
2022/02/22 02:31:21;;;;;;;24.88;4.93;;;;;;;5.18;57.80;99940.78;10382348;28;20056;-67
2022/02/22 02:36:23;;;;;;;33.47;4.70;;;;;;;5.01;58.27;99956.97;10384037;28;20132;-67
2022/02/22 02:41:25;;;;;;;28.13;4.50;;;;;;;4.86;58.48;99961.88;10383775;28;20071;-67
2022/02/22 02:46:27;;;;;;;33.20;5.07;;;;;;;4.91;58.75;99975.50;10383720;28;20429;-67
2022/02/22 02:51:29;;;;;;;26.80;4.68;;;;;;;4.83;59.90;99986.13;10383510;28;20050;-67
2022/02/22 02:56:32;;;;;;;26.00;4.32;;;;;;;4.99;59.46;100000.25;10382421;28;20558;-67
2022/02/22 03:01:35;;;;;;;25.55;5.05;;;;;;;4.95;59.54;99996.06;10383801;28;20676;-67
2022/02/22 03:06:37;;;;;;;32.97;5.32;;;;;;;4.99;59.32;100004.56;10390138;28;20176;-67
2022/02/22 03:11:40;;;;;;;31.90;5.20;;;;;;;4.99;58.91;100008.00;10393736;28;20413;-67
2022/02/22 03:16:41;;;;;;;28.20;4.28;;;;;;;4.98;59.13;100008.06;10400098;28;20048;-67
2022/02/22 03:21:43;;;;;;;24.27;4.30;;;;;;;5.05;58.23;100010.38;10400107;28;20051;-68
2022/02/22 03:26:45;;;;;;;21.83;4.10;;;;;;;5.08;58.69;100022.41;10398276;28;20493;-67
2022/02/22 03:31:47;;;;;;;30.38;5.25;;;;;;;5.15;57.94;100019.50;10397751;28;20053;-67
2022/02/22 03:36:49;;;;;;;26.17;4.68;;;;;;;5.15;57.96;100031.63;10377966;28;22149;-67
2022/02/22 03:41:50;;;;;;;28.38;4.65;;;;;;;5.07;57.75;100039.69;10397006;28;20574;-67
2022/02/22 03:46:52;;;;;;;28.08;4.80;;;;;;;4.97;57.95;100053.03;10391372;28;20224;-67
2022/02/22 03:51:54;;;;;;;29.90;5.18;;;;;;;5.08;57.58;100045.72;10394975;28;20103;-67
2022/02/22 03:56:55;;;;;;;24.23;4.68;;;;;;;5.06;57.56;100056.16;10393732;28;20056;-68
2022/02/22 04:01:57;;;;;;;34.78;5.30;;;;;;;5.20;57.68;100055.66;10396416;28;20560;-68
2022/02/22 04:07:00;;;;;;;28.65;4.90;;;;;;;5.16;57.57;100054.94;10391953;28;20053;-68
2022/02/22 04:12:02;;;;;;;32.55;5.38;;;;;;;5.05;57.39;100062.22;10387763;28;20053;-67
2022/02/22 04:17:05;;;;;;;30.83;4.95;;;;;;;4.97;57.60;100074.59;10389631;28;20425;-67
2022/02/22 04:22:06;;;;;;;23.42;5.22;;;;;;;4.89;57.65;100070.56;10387640;28;20371;-68
2022/02/22 04:27:08;;;;;;;28.63;5.10;;;;;;;5.08;57.49;100071.66;10389194;28;20136;-68
2022/02/22 04:32:10;;;;;;;27.40;4.50;;;;;;;5.11;57.37;100092.25;10387500;28;20045;-68
2022/02/22 04:37:16;;;;;;;26.58;4.00;;;;;;;5.03;57.09;100087.34;10389851;28;20041;-68
2022/02/22 04:42:18;;;;;;;28.75;4.75;;;;;;;4.97;57.08;100103.13;10387275;28;21430;-68
2022/02/22 04:47:20;;;;;;;29.02;4.80;;;;;;;4.88;57.88;100115.53;10387201;28;20136;-68
2022/02/22 04:52:22;;;;;;;27.35;4.78;;;;;;;4.93;57.63;100118.81;10388422;28;20152;-68
2022/02/22 04:57:24;;;;;;;28.20;5.25;;;;;;;4.92;57.62;100117.13;10386627;28;20151;-68
2022/02/22 05:02:25;;;;;;;35.45;10.43;;;;;;;4.86;57.57;100127.72;10387920;28;20523;-68
2022/02/22 05:07:28;;;;;;;26.20;5.53;;;;;;;4.88;58.01;100131.09;10386489;28;20505;-68
2022/02/22 05:12:29;;;;;;;30.35;4.95;;;;;;;4.85;57.57;100133.78;10386910;28;20056;-67
2022/02/22 05:17:32;;;;;;;21.92;4.53;;;;;;;4.91;57.63;100131.84;10386477;28;20132;-68
2022/02/22 05:22:45;;;;;;;20.05;3.78;;;;;;;4.84;57.54;100137.28;10384381;28;20136;-67
2022/02/22 05:27:47;;;;;;;25.27;5.20;;;;;;;4.85;57.96;100146.72;10386132;28;20042;-68
2022/02/22 05:32:49;;;;;;;30.63;4.72;;;;;;;4.76;58.20;100153.06;10385964;28;20057;-67
2022/02/22 05:37:50;;;;;;;29.42;4.93;;;;;;;4.62;58.65;100158.69;10387090;28;20260;-67
2022/02/22 05:42:52;;;;;;;31.13;5.22;;;;;;;4.63;59.02;100172.50;10385588;28;20064;-67
2022/02/22 05:47:54;;;;;;;38.05;6.00;;;;;;;4.64;58.85;100161.22;10385648;28;20065;-68
2022/02/22 05:52:57;;;;;;;29.20;4.88;;;;;;;4.47;59.39;100171.28;10385816;28;20150;-67
2022/02/22 05:57:59;;;;;;;35.83;5.68;;;;;;;4.37;60.07;100177.66;10383837;28;20063;-68
2022/02/22 06:03:01;;;;;;;31.92;5.60;;;;;;;4.40;60.10;100186.16;10383030;28;20127;-67
2022/02/22 06:08:03;;;;;;;28.77;5.63;;;;;;;4.32;60.17;100208.84;10386227;28;20049;-67
2022/02/22 06:13:05;;;;;;;28.63;4.70;;;;;;;4.16;60.83;100215.38;10385114;28;20586;-67
2022/02/22 06:18:06;;;;;;;31.63;5.18;;;;;;;4.16;61.01;100223.13;10385191;28;20081;-67
2022/02/22 06:23:08;;;;;;;30.35;5.35;;;;;;;4.18;61.46;100225.66;10384160;28;20401;-67
2022/02/22 06:28:12;;;;;;;34.38;5.50;;;;;;;4.30;60.83;100236.53;10379846;28;20056;-67
2022/02/22 06:33:14;;;;;;;29.55;5.63;;;;;;;4.39;60.89;100241.41;10382085;28;20057;-67
2022/02/22 06:38:16;;;;;;;28.55;5.90;;;;;;;4.53;60.71;100253.97;10383885;28;20289;-68
2022/02/22 06:43:18;;;;;;;31.92;5.28;;;;;;;4.64;60.29;100262.25;10385117;28;20050;-67
2022/02/22 06:48:21;;;;;;;31.27;5.22;;;;;;;4.79;60.08;100260.94;10384389;28;20430;-68
2022/02/22 06:53:23;;;;;;;33.40;6.80;;;;;;;4.91;59.84;100260.56;10385265;28;20070;-67
2022/02/22 06:58:24;;;;;;;25.85;5.85;;;;;;;5.04;59.33;100269.66;10379664;28;20426;-69
2022/02/22 07:03:26;;;;;;;36.03;6.25;;;;;;;5.20;59.10;100283.81;10382393;28;20037;-69
2022/02/22 07:08:28;;;;;;;29.48;4.90;;;;;;;5.21;58.73;100275.13;10382709;28;20053;-69
2022/02/22 07:13:30;;;;;;;30.42;4.88;;;;;;;5.07;58.71;100288.53;10380968;28;20061;-68
2022/02/22 07:18:33;;;;;;;26.50;4.90;;;;;;;5.01;58.51;100287.88;10382470;28;20409;-69
2022/02/22 07:23:35;;;;;;;22.60;4.05;;;;;;;5.02;58.14;100292.19;10381631;28;20518;-68
2022/02/22 07:28:36;;;;;;;29.65;4.20;;;;;;;5.01;57.77;100282.69;10382135;28;20091;-68
2022/02/22 07:33:39;;;;;;;26.23;4.80;;;;;;;5.03;57.84;100299.03;10382610;28;20069;-68
2022/02/22 07:38:41;;;;;;;24.00;4.82;;;;;;;4.95;57.72;100303.63;10384605;28;20062;-68
2022/02/22 07:43:42;;;;;;;26.75;4.72;;;;;;;4.91;57.44;100313.25;10382977;28;20132;-68
2022/02/22 07:48:46;;;;;;;23.17;4.03;;;;;;;4.79;57.83;100323.13;10383437;28;20049;-68
2022/02/22 07:53:48;;;;;;;24.40;4.18;;;;;;;4.85;57.63;100322.94;10376981;28;20093;-67
2022/02/22 07:58:50;;;;;;;23.70;4.10;;;;;;;5.00;57.54;100331.13;10386890;28;20077;-69
2022/02/22 08:03:52;;;;;;;23.67;4.88;;;;;;;5.49;56.58;100331.22;10387169;28;20053;-66
2022/02/22 08:08:54;;;;;;;21.48;4.05;;;;;;;5.58;55.99;100343.06;10388221;28;20542;-70
2022/02/22 08:13:55;;;;;;;21.60;3.97;;;;;;;5.80;56.10;100353.59;10379858;28;20087;-67
2022/02/22 08:18:58;;;;;;;18.50;3.20;;;;;;;6.01;55.46;100339.88;10385236;28;20052;-67
2022/02/22 08:24:00;;;;;;;20.25;5.53;;;;;;;6.12;54.79;100330.78;10384454;28;20409;-67
2022/02/22 08:29:10;;;;;;;23.13;3.70;;;;;;;6.23;54.39;100330.41;10383813;28;20084;-68
2022/02/22 08:34:12;;;;;;;20.95;3.80;;;;;;;6.13;53.84;100347.22;10384143;28;20095;-68
2022/02/22 08:39:14;;;;;;;18.05;3.42;;;;;;;6.37;54.29;100348.16;10384405;28;20406;-67
2022/02/22 08:44:17;;;;;;;19.60;3.83;;;;;;;6.86;53.37;100346.28;10385174;28;20045;-67
2022/02/22 08:49:19;;;;;;;24.15;4.10;;;;;;;6.92;53.25;100338.25;10373090;28;20056;-67
2022/02/22 08:54:21;;;;;;;21.33;3.60;;;;;;;6.31;53.70;100352.66;10384393;28;20144;-69
2022/02/22 08:59:22;;;;;;;22.35;4.15;;;;;;;6.46;53.42;100350.41;10378493;28;20063;-67
2022/02/22 09:04:24;;;;;;;16.92;3.75;;;;;;;6.63;53.58;100342.84;10386948;28;20050;-68
2022/02/22 09:09:26;;;;;;;21.70;4.07;;;;;;;6.93;53.06;100339.09;10387933;28;20509;-67
2022/02/22 09:14:28;;;;;;;19.05;4.00;;;;;;;6.95;52.85;100332.94;10382619;28;20497;-67
2022/02/22 09:19:30;;;;;;;20.33;4.32;;;;;;;7.09;52.84;100335.84;10384294;28;20065;-67
2022/02/22 09:24:32;;;;;;;20.45;4.20;;;;;;;7.37;52.46;100325.19;10382534;28;20061;-67
2022/02/22 09:29:33;;;;;;;15.93;3.50;;;;;;;7.31;52.75;100325.41;10383518;28;20108;-67
2022/02/22 09:34:35;;;;;;;18.48;3.90;;;;;;;7.40;52.27;100321.63;10386682;28;20146;-62
2022/02/22 09:39:38;;;;;;;17.05;3.78;;;;;;;7.40;52.31;100319.88;10379522;28;20091;-62
2022/02/22 09:44:40;;;;;;;18.80;3.58;;;;;;;7.45;52.03;100315.31;10385465;28;20147;-62
2022/02/22 09:49:42;;;;;;;15.05;3.50;;;;;;;7.46;52.41;100306.59;10383358;28;20405;-62
2022/02/22 09:54:44;;;;;;;15.07;3.72;;;;;;;7.70;52.16;100300.38;10385530;28;20049;-62
2022/02/22 09:59:49;;;;;;;19.75;4.10;;;;;;;7.40;52.65;100311.19;10387144;28;20064;-62
2022/02/22 10:04:51;;;;;;;18.98;3.70;;;;;;;7.42;52.64;100309.38;10385738;28;20046;-62
2022/02/22 10:09:55;;;;;;;17.45;3.83;;;;;;;7.56;52.86;100302.72;10386484;28;20060;-61
2022/02/22 10:14:58;;;;;;;15.30;3.53;;;;;;;7.60;52.34;100288.66;10384670;28;20049;-62
2022/02/22 10:20:04;;;;;;;12.30;3.30;;;;;;;7.53;52.64;100296.78;10384930;28;21248;-61
2022/02/22 10:25:10;;;;;;;15.30;3.17;;;;;;;7.78;52.03;100287.88;10385292;28;20072;-61
2022/02/22 10:30:24;;;;;;;11.80;3.20;;;;;;;8.01;51.35;100279.94;10385714;28;20644;-62
2022/02/22 10:35:33;;;;;;;12.82;3.00;;;;;;;8.35;51.16;100268.00;10383895;28;20096;-63
2022/02/22 10:40:35;;;;;;;14.65;3.50;;;;;;;8.65;50.85;100258.78;10385329;28;20103;-62
2022/02/22 10:45:37;;;;;;;10.57;3.00;;;;;;;8.98;50.25;100261.56;10386451;28;20053;-63
2022/02/22 10:50:39;;;;;;;11.48;3.30;;;;;;;8.82;50.20;100253.63;10384885;28;20148;-64
2022/02/22 10:55:41;;;;;;;13.77;3.20;;;;;;;8.94;49.82;100247.84;10385215;28;20144;-63
2022/02/22 11:00:43;;;;;;;12.77;2.80;;;;;;;8.75;49.72;100252.25;10385614;28;20480;-63
2022/02/22 11:05:49;;;;;;;14.77;3.10;;;;;;;8.96;48.77;100250.34;10385585;28;20135;-63
2022/02/22 11:10:55;;;;;;;13.95;2.92;;;;;;;8.92;48.89;100260.09;10384799;28;20057;-63
2022/02/22 11:16:17;;;;;;;9.18;2.90;;;;;;;9.00;48.93;100268.41;10385886;28;20049;-63
2022/02/22 11:21:21;;;;;;;8.57;2.65;;;;;;;9.02;49.20;100273.53;10385641;28;20057;-63
2022/02/22 11:26:23;;;;;;;13.05;3.05;;;;;;;8.96;49.37;100276.44;10384754;28;20156;-63
2022/02/22 11:31:31;;;;;;;10.98;2.67;;;;;;;8.95;49.27;100265.19;10386581;28;20061;-63
2022/02/22 11:36:36;;;;;;;9.18;2.47;;;;;;;8.77;50.24;100277.31;10392291;28;20049;-63
2022/02/22 11:41:42;;;;;;;11.95;3.28;;;;;;;8.54;50.01;100263.66;10391981;28;20493;-64
2022/02/22 11:46:48;;;;;;;9.45;2.80;;;;;;;8.62;50.42;100246.75;10391443;28;20061;-64
2022/02/22 11:51:53;;;;;;;13.18;2.90;;;;;;;8.36;51.38;100243.66;10391443;28;20053;-63
2022/02/22 11:57:16;;;;;;;12.68;3.63;;;;;;;8.64;50.80;100218.84;10391998;28;20059;-63
2022/02/22 12:02:27;;;;;;;11.93;3.45;;;;;;;8.45;51.17;100207.59;10391219;28;20041;-63
2022/02/22 12:07:36;;;;;;;12.55;3.38;;;;;;;8.47;51.37;100208.38;10390389;28;20061;-63
2022/02/22 12:12:38;;;;;;;14.25;3.58;;;;;;;8.67;51.25;100223.91;10391051;28;20133;-63
2022/02/22 12:17:40;;;;;;;15.10;3.53;;;;;;;8.52;51.26;100232.47;10390026;28;20059;-64
2022/02/22 12:22:48;;;;;;;13.68;3.40;;;;;;;8.49;51.83;100213.50;10390121;28;20049;-63
2022/02/22 12:27:59;;;;;;;16.92;3.85;;;;;;;8.43;51.84;100208.56;10390677;28;20180;-64
2022/02/22 12:33:01;;;;;;;;;;;;;;;8.28;52.87;100217.13;10391032;28;20053;-63
2022/02/22 12:38:13;;;;;;;24.55;4.15;;;;;;;8.49;52.84;100213.50;10388862;28;19964;-63
2022/02/22 12:43:15;;;;;;;15.55;3.60;;;;;;;8.47;53.75;100191.88;10390159;28;20657;-64
2022/02/22 12:48:19;;;;;;;18.70;4.05;;;;;;;8.52;53.86;100176.88;10388933;28;20061;-64
2022/02/22 12:53:25;;;;;;;14.23;3.60;;;;;;;9.02;53.15;100167.44;10389759;28;20071;-64
2022/02/22 12:58:33;;;;;;;18.65;3.85;;;;;;;9.00;53.06;100182.31;10389115;28;20057;-63
2022/02/22 13:03:35;;;;;;;19.55;3.92;;;;;;;8.74;53.55;100185.34;10389260;28;20124;-64
2022/02/22 13:08:38;;;;;;;18.52;4.63;;;;;;;8.69;54.04;100169.94;10388578;28;20061;-64
2022/02/22 13:13:40;;;;;;;26.42;4.57;;;;;;;8.94;54.09;100151.31;10389210;28;20073;-64
2022/02/22 13:18:57;;;;;;;21.65;4.22;;;;;;;8.97;53.56;100147.72;10388554;28;20056;-64
2022/02/22 13:24:09;;;;;;;17.02;4.10;;;;;;;8.99;54.00;100120.66;10389203;28;20060;-64
2022/02/22 13:29:13;;;;;;;20.20;3.90;;;;;;;9.07;54.63;100108.06;10387414;28;20057;-64
2022/02/22 13:34:16;;;;;;;18.23;4.15;;;;;;;8.90;55.14;100105.44;10387505;28;20417;-64
2022/02/22 13:39:20;;;;;;;25.63;4.78;;;;;;;8.84;55.39;100108.34;10387495;28;20049;-64
2022/02/22 13:44:36;;;;;;;17.67;4.10;;;;;;;8.62;56.07;100105.13;10388403;28;20136;-64
2022/02/22 13:49:45;;;;;;;16.05;4.28;;;;;;;8.44;57.54;100098.22;10386970;28;20872;-63
2022/02/22 13:54:51;;;;;;;26.43;4.80;;;;;;;8.43;57.38;100105.16;10386706;28;20142;-64
2022/02/22 13:59:59;;;;;;;22.65;4.63;;;;;;;8.19;58.82;100115.91;10387290;28;20055;-63
2022/02/22 14:05:00;;;;;;;23.17;4.82;;;;;;;8.16;58.69;100108.25;10386730;28;20132;-64
2022/02/22 14:10:03;;;;;;;23.17;4.70;;;;;;;8.29;58.94;100111.97;10386805;28;20363;-64
2022/02/22 14:15:05;;;;;;;26.52;4.80;;;;;;;8.11;59.48;100098.06;10386967;28;20077;-64
2022/02/22 14:20:09;;;;;;;18.42;4.43;;;;;;;8.35;58.95;100081.25;10385553;28;20520;-63
2022/02/22 14:25:11;;;;;;;23.35;5.15;;;;;;;8.06;59.19;100091.34;10386742;28;20049;-63
2022/02/22 14:30:13;;;;;;;25.30;4.70;;;;;;;8.06;59.21;100088.75;10370022;28;20065;-64
2022/02/22 14:35:15;;;;;;;21.30;4.35;;;;;;;8.11;60.21;100079.81;10384975;28;20128;-63
2022/02/22 14:40:17;;;;;;;22.33;4.30;;;;;;;7.92;61.29;100076.34;10386322;28;20052;-64
2022/02/22 14:45:19;;;;;;;15.45;3.55;;;;;;;7.97;61.79;100066.56;10385376;28;20140;-64
2022/02/22 14:50:21;;;;;;;20.00;4.70;;;;;;;7.91;61.63;100074.66;10385902;28;20063;-64
2022/02/22 14:55:23;;;;;;;14.20;4.45;;;;;;;7.77;62.09;100067.47;10385017;28;20053;-64
2022/02/22 15:00:26;;;;;;;18.50;3.78;;;;;;;7.61;62.59;100057.84;10385730;28;20136;-64
2022/02/22 15:05:35;;;;;;;16.75;3.90;;;;;;;7.49;63.09;100067.03;10388954;28;20053;-64
2022/02/22 15:10:40;;;;;;;19.48;3.60;;;;;;;7.59;62.17;100067.50;10393958;28;20072;-64
2022/02/22 15:15:42;;;;;;;17.13;4.60;;;;;;;7.65;62.08;100068.03;10391785;28;20049;-64
2022/02/22 15:20:45;;;;;;;16.73;4.38;;;;;;;7.55;62.46;100056.34;10393550;28;20057;-64
2022/02/22 15:25:49;;;;;;;15.75;3.40;;;;;;;7.73;61.73;100028.66;10393001;28;20050;-64
2022/02/22 15:31:00;;;;;;;12.82;2.88;;;;;;;7.75;61.75;100030.25;10392413;28;20065;-64
2022/02/22 15:36:03;;;;;;;14.05;3.10;;;;;;;7.91;61.29;100009.56;10392951;28;20133;-64
2022/02/22 15:41:05;;;;;;;12.75;3.33;;;;;;;7.76;61.84;100018.94;10392610;28;20045;-64
2022/02/22 15:46:07;;;;;;;12.63;2.88;;;;;;;7.83;61.42;100003.88;10393001;28;20140;-64
2022/02/22 15:51:09;;;;;;;11.77;2.55;;;;;;;7.81;61.43;100010.91;10392377;28;20156;-64
2022/02/22 15:56:11;;;;;;;9.70;2.70;;;;;;;7.77;61.33;100023.22;10392168;28;20064;-64
2022/02/22 16:01:13;;;;;;;7.25;2.40;;;;;;;7.70;61.47;100024.44;10391587;28;20560;-64
2022/02/22 16:06:14;;;;;;;11.40;2.88;;;;;;;7.74;61.44;100006.91;10391538;28;20049;-63
2022/02/22 16:11:16;;;;;;;9.07;2.60;;;;;;;7.54;61.88;99996.59;10391036;28;20136;-63
2022/02/22 16:16:18;;;;;;;8.05;2.97;;;;;;;7.54;61.93;99996.59;10390372;28;20598;-63
2022/02/22 16:21:20;;;;;;;9.27;2.60;;;;;;;7.68;61.39;99979.41;10391031;28;20498;-62
2022/02/22 16:26:22;;;;;;;12.07;3.17;;;;;;;7.83;61.33;99976.06;10390582;28;20119;-63
2022/02/22 16:31:23;;;;;;;8.85;2.30;;;;;;;7.76;61.61;99959.06;10389998;28;20089;-64
2022/02/22 16:36:25;;;;;;;10.23;3.17;;;;;;;7.64;62.07;99941.44;10390703;28;20141;-63
2022/02/22 16:41:27;;;;;;;9.32;2.47;;;;;;;7.54;62.40;99937.56;10390565;28;20083;-64
2022/02/22 16:46:28;;;;;;;9.18;2.30;;;;;;;7.49;62.88;99956.94;10389329;28;20433;-64
2022/02/22 16:51:30;;;;;;;10.05;2.50;;;;;;;7.47;62.91;99962.19;10389935;28;20053;-64
2022/02/22 16:56:33;;;;;;;9.40;2.58;;;;;;;7.53;62.80;99951.50;10389721;28;20457;-64
2022/02/22 17:01:35;;;;;;;11.77;3.10;;;;;;;7.57;62.86;99968.66;10390089;28;20128;-64
2022/02/22 17:06:38;;;;;;;10.57;2.72;;;;;;;7.57;62.97;99953.03;10389224;28;20425;-64
2022/02/22 17:11:39;;;;;;;9.23;2.55;;;;;;;7.56;62.99;99963.53;10390028;28;20055;-64
2022/02/22 17:16:41;;;;;;;8.77;2.35;;;;;;;7.53;63.06;99966.28;10387824;28;20089;-64
2022/02/22 17:21:43;;;;;;;7.53;2.35;;;;;;;7.55;63.10;99977.47;10389223;28;20052;-63
2022/02/22 17:26:44;;;;;;;7.20;2.20;;;;;;;7.58;63.05;99957.34;10388498;28;20048;-64
2022/02/22 17:31:46;;;;;;;7.65;2.50;;;;;;;7.57;63.04;99954.81;10388030;28;20053;-64
2022/02/22 17:36:48;;;;;;;6.72;2.22;;;;;;;7.36;63.92;99979.22;10386775;28;20136;-64
2022/02/22 17:41:50;;;;;;;5.75;1.80;;;;;;;7.68;63.10;99974.19;10384513;28;20096;-64
2022/02/22 17:46:51;;;;;;;5.35;1.80;;;;;;;7.67;63.05;99956.06;10385835;28;20188;-65
2022/02/22 17:51:54;;;;;;;4.85;1.58;;;;;;;7.84;62.39;99943.91;10384423;28;20120;-64
2022/02/22 17:56:56;;;;;;;5.65;1.85;;;;;;;7.88;62.41;99955.88;10385310;28;20635;-64
2022/02/22 18:01:59;;;;;;;5.75;1.67;;;;;;;7.85;62.45;99955.19;10385583;28;20053;-63
2022/02/22 18:07:02;;;;;;;5.75;1.63;;;;;;;7.93;62.47;99943.47;10385628;28;20102;-64
2022/02/22 18:12:04;;;;;;;6.10;1.60;;;;;;;7.94;62.45;99939.94;10385898;28;20041;-64
2022/02/22 18:17:06;;;;;;;3.45;1.52;;;;;;;7.96;62.50;99945.06;10385771;28;20458;-64
2022/02/22 18:22:08;;;;;;;3.90;1.60;;;;;;;7.94;62.79;99942.56;10385176;28;20135;-64
2022/02/22 18:27:10;;;;;;;4.68;1.90;;;;;;;8.01;62.70;99935.28;10384812;28;20053;-63
2022/02/22 18:32:12;;;;;;;5.70;2.00;;;;;;;8.03;63.16;99933.44;10384379;28;20502;-64
2022/02/22 18:37:13;;;;;;;8.02;2.08;;;;;;;8.03;63.44;99918.69;10384826;28;20057;-64
2022/02/22 18:42:15;;;;;;;7.30;2.13;;;;;;;7.89;64.30;99921.13;10379695;28;20428;-63
2022/02/22 18:47:20;;;;;;;6.00;2.10;;;;;;;7.96;64.45;99912.06;10379848;28;20053;-64
2022/02/22 18:52:21;;;;;;;9.55;2.72;;;;;;;7.88;64.99;99897.72;10371236;28;20136;-64
2022/02/22 18:57:23;;;;;;;9.15;2.35;;;;;;;7.87;65.37;99901.28;10382663;28;20059;-64
2022/02/22 19:02:25;;;;;;;8.93;2.38;;;;;;;7.85;65.88;99892.69;10383057;28;20127;-63
2022/02/22 19:07:27;;;;;;;7.20;2.50;;;;;;;7.79;66.27;99899.03;10384284;28;20065;-64
2022/02/22 19:12:28;;;;;;;8.93;2.60;;;;;;;7.77;66.36;99906.06;10383708;28;20409;-64
2022/02/22 19:17:30;;;;;;;7.43;2.65;;;;;;;7.74;66.64;99911.44;10384421;28;20136;-64
2022/02/22 19:22:32;;;;;;;5.70;2.50;;;;;;;7.74;66.94;99919.25;10383732;28;20059;-64
2022/02/22 19:27:34;;;;;;;8.52;2.60;;;;;;;7.75;67.00;99927.91;10384079;28;20053;-64
2022/02/22 19:32:36;;;;;;;5.18;2.17;;;;;;;7.82;66.79;99922.31;10383089;28;20053;-64
2022/02/22 19:37:38;;;;;;;4.57;1.90;;;;;;;7.80;66.98;99941.53;10384556;28;20060;-64
2022/02/22 19:42:40;;;;;;;5.88;2.00;;;;;;;7.78;67.23;99927.75;10382674;28;20686;-63
2022/02/22 19:47:42;;;;;;;7.28;2.05;;;;;;;7.84;67.17;99930.03;10382472;28;20556;-64
2022/02/22 19:52:44;;;;;;;5.45;1.80;;;;;;;7.91;66.80;99931.44;10383414;28;20045;-64
2022/02/22 19:57:45;;;;;;;4.35;1.70;;;;;;;8.00;66.77;99941.41;10386996;28;20518;-64
2022/02/22 20:02:47;;;;;;;4.55;1.60;;;;;;;8.09;66.45;99930.53;10389363;28;20041;-64
2022/02/22 20:07:52;;;;;;;3.38;1.75;;;;;;;8.17;66.40;99930.19;10390623;28;20056;-64
2022/02/22 20:12:54;;;;;;;3.60;1.77;;;;;;;8.21;66.19;99932.56;10390022;28;20136;-64
2022/02/22 20:17:55;;;;;;;5.05;1.90;;;;;;;8.30;66.13;99931.28;10389910;28;20104;-64
2022/02/22 20:22:57;;;;;;;3.70;1.90;;;;;;;8.25;66.98;99934.09;10390299;28;20073;-64
2022/02/22 20:28:00;;;;;;;4.90;2.00;;;;;;;8.20;67.23;99940.47;10389928;28;20501;-65
2022/02/22 20:33:01;;;;;;;4.05;1.90;;;;;;;8.15;67.64;99942.44;10386066;28;20157;-64
2022/02/22 20:38:03;;;;;;;4.53;1.92;;;;;;;8.10;68.01;99924.44;10386003;28;20129;-64
2022/02/22 20:43:05;;;;;;;3.83;1.70;;;;;;;8.04;68.44;99929.91;10388380;28;20064;-64
2022/02/22 20:48:07;;;;;;;3.65;1.90;;;;;;;8.03;68.71;99939.50;10388539;28;20057;-64
2022/02/22 20:53:09;;;;;;;4.55;2.10;;;;;;;7.77;70.23;99937.31;10379256;28;20048;-64
2022/02/22 20:58:13;;;;;;;7.10;2.00;;;;;;;8.03;69.24;99949.94;10389142;28;20401;-64
2022/02/22 21:03:15;;;;;;;4.93;1.90;;;;;;;8.02;69.48;99956.03;10386970;28;20049;-64
2022/02/22 21:08:16;;;;;;;6.47;1.90;;;;;;;8.01;69.80;99967.38;10388102;28;20103;-65
2022/02/22 21:13:18;;;;;;;4.68;2.13;;;;;;;7.94;70.20;99981.63;10388544;28;20049;-64
2022/02/22 21:18:20;;;;;;;3.90;2.10;;;;;;;8.08;69.97;99993.13;10387407;28;20595;-64
2022/02/22 21:23:21;;;;;;;5.47;2.22;;;;;;;8.12;69.84;100021.56;10381718;28;20649;-64
2022/02/22 21:28:24;;;;;;;13.90;3.70;;;;;;;8.10;70.52;100085.94;10380360;28;20056;-64
2022/02/22 21:33:26;;;;;;;5.75;1.77;;;;;;;7.79;69.05;100107.31;10380978;28;20053;-64
2022/02/22 21:38:28;;;;;;;5.88;1.52;;;;;;;7.62;67.42;100143.69;10386726;28;20057;-64
2022/02/22 21:43:30;;;;;;;5.68;1.70;;;;;;;7.40;65.92;100155.09;10387690;28;20413;-64
2022/02/22 21:48:33;;;;;;;9.23;1.98;;;;;;;7.29;65.16;100158.13;10386066;28;20046;-64
2022/02/22 21:53:34;;;;;;;10.57;2.10;;;;;;;7.14;65.46;100167.44;10386768;28;20140;-66
2022/02/22 21:58:39;;;;;;;9.07;1.98;;;;;;;7.14;65.42;100190.03;10386479;28;20119;-67
2022/02/22 22:03:41;;;;;;;9.05;2.13;;;;;;;7.07;65.22;100194.63;10383754;28;20045;-67
2022/02/22 22:08:43;;;;;;;11.05;2.97;;;;;;;7.07;64.81;100201.56;10384762;28;20439;-67
2022/02/22 22:13:44;;;;;;;14.57;3.97;;;;;;;6.94;64.86;100219.41;10385821;28;20052;-67
2022/02/22 22:18:46;;;;;;;13.20;4.05;;;;;;;7.04;64.34;100225.94;10384865;28;20045;-67
2022/02/22 22:23:48;;;;;;;12.52;3.90;;;;;;;6.92;64.27;100234.25;10386704;28;20085;-67
2022/02/22 22:28:50;;;;;;;16.02;3.17;;;;;;;6.97;64.25;100242.72;10385466;28;20520;-67
2022/02/22 22:33:51;;;;;;;17.23;3.15;;;;;;;6.94;64.11;100252.38;10384634;28;20518;-67
2022/02/22 22:38:53;;;;;;;13.70;3.42;;;;;;;6.97;63.73;100263.50;10384699;28;20199;-68
2022/02/22 22:43:56;;;;;;;11.93;2.72;;;;;;;6.85;63.68;100287.41;10385496;28;20148;-68
2022/02/22 22:49:05;;;;;;;13.60;2.88;;;;;;;6.68;63.76;100278.53;10384728;28;20071;-67
2022/02/22 22:54:07;;;;;;;16.05;3.17;;;;;;;6.60;63.82;100298.78;10383529;28;20091;-67
2022/02/22 22:59:09;;;;;;;14.68;3.63;;;;;;;6.49;63.80;100299.16;10384524;28;20539;-67
2022/02/22 23:04:10;;;;;;;16.58;2.95;;;;;;;6.42;63.63;100297.72;10377903;28;20049;-67
2022/02/22 23:14:33;;;;;;;12.37;2.77;;;;;;;6.26;64.04;100327.75;10385497;28;20492;-67
2022/02/22 23:19:36;;;;;;;18.17;3.38;;;;;;;6.44;63.94;100321.88;10384315;28;20517;-67
2022/02/22 23:24:38;;;;;;;13.88;3.10;;;;;;;6.54;63.75;100332.78;10385121;28;21095;-68